AFL176 URWA-ULLI
Flight info
| Callsign | AFL176 |
|---|---|
| Flight time | 2h 38m |
| Altitude | 32000 |
| Route | OMIRA5A OMIRA G242 LIDUS N50 RINGU/K0859F340 N50 NUDKO T561 ODATI T875 GENPA GENPA1B |
| Aircraft | A321/M-SDE3FGHIRWY/LB1 |
Departure
| Time | 2026-05-01 08:38 |
|---|---|
| Airport | Astrakhan Narimanovo Boris M. Kustodiev International Airport (URWA) |
Arrival
| Time | 2026-05-01 11:17 |
|---|---|
| Airport | Pulkovo Airport (ULLI) |
| Time | Latitude | Longitude | Altitude | Speed | Heading |
|---|---|---|---|---|---|
| 2026-05-01 08:07 | 46.28654 | 48.00112 | -52 ft | 0 kts | 52° |
| 2026-05-01 08:30 | 46.28651 | 48.00107 | -53 ft | 2 kts | 49° |
| 2026-05-01 08:30 | 46.28639 | 48.00094 | -53 ft | 2 kts | 24° |
| 2026-05-01 08:30 | 46.28625 | 48.00087 | -53 ft | 2 kts | 6° |
| 2026-05-01 08:30 | 46.28610 | 48.00086 | -53 ft | 2 kts | 5° |
| 2026-05-01 08:31 | 46.28595 | 48.00084 | -53 ft | 2 kts | 6° |
| 2026-05-01 08:31 | 46.28581 | 48.00082 | -53 ft | 2 kts | 5° |
| 2026-05-01 08:31 | 46.28568 | 48.00080 | -53 ft | 0 kts | 6° |
| 2026-05-01 08:31 | 46.28556 | 48.00079 | -53 ft | 2 kts | 346° |
| 2026-05-01 08:32 | 46.28542 | 48.00087 | -53 ft | 2 kts | 324° |
| 2026-05-01 08:32 | 46.28532 | 48.00102 | -53 ft | 2 kts | 301° |
| 2026-05-01 08:32 | 46.28526 | 48.00121 | -53 ft | 0 kts | 280° |
| 2026-05-01 08:32 | 46.28526 | 48.00130 | -53 ft | 1 kts | 275° |
| 2026-05-01 08:33 | 46.28525 | 48.00132 | -53 ft | 0 kts | 276° |
| 2026-05-01 08:34 | 46.28526 | 48.00128 | -53 ft | 0 kts | 275° |
| 2026-05-01 08:34 | 46.28529 | 48.00093 | -53 ft | 6 kts | 277° |
| 2026-05-01 08:35 | 46.28537 | 48.00000 | -53 ft | 11 kts | 277° |
| 2026-05-01 08:35 | 46.28547 | 47.99882 | -53 ft | 12 kts | 277° |
| 2026-05-01 08:35 | 46.28558 | 47.99760 | -53 ft | 12 kts | 278° |
| 2026-05-01 08:35 | 46.28558 | 47.99647 | -53 ft | 10 kts | 250° |
| 2026-05-01 08:36 | 46.28495 | 47.99592 | -53 ft | 11 kts | 188° |
| 2026-05-01 08:36 | 46.28425 | 47.99554 | -53 ft | 10 kts | 234° |
| 2026-05-01 08:36 | 46.28424 | 47.99448 | -53 ft | 11 kts | 277° |
| 2026-05-01 08:36 | 46.28434 | 47.99334 | -53 ft | 11 kts | 277° |
| 2026-05-01 08:37 | 46.28443 | 47.99215 | -53 ft | 12 kts | 275° |
| 2026-05-01 08:37 | 46.28478 | 47.99106 | -53 ft | 12 kts | 315° |
| 2026-05-01 08:37 | 46.28460 | 47.99059 | -53 ft | 9 kts | 136° |
| 2026-05-01 08:37 | 46.28450 | 47.99118 | -53 ft | 5 kts | 94° |
| 2026-05-01 08:38 | 46.28419 | 47.99440 | -52 ft | 71 kts | 96° |
| 2026-05-01 08:38 | 46.28337 | 48.00510 | -52 ft | 140 kts | 98° |
| 2026-05-01 08:38 | 46.28209 | 48.02040 | 320 ft | 160 kts | 95° |
| 2026-05-01 08:38 | 46.28077 | 48.03572 | 1133 ft | 152 kts | 99° |
| 2026-05-01 08:39 | 46.27608 | 48.04862 | 1826 ft | 152 kts | 138° |
| 2026-05-01 08:39 | 46.26627 | 48.05401 | 2143 ft | 160 kts | 178° |
| 2026-05-01 08:39 | 46.25552 | 48.04838 | 2370 ft | 172 kts | 220° |
| 2026-05-01 08:39 | 46.24992 | 48.03301 | 2588 ft | 184 kts | 263° |
| 2026-05-01 08:40 | 46.26111 | 47.99862 | 3038 ft | 208 kts | 306° |
| 2026-05-01 08:40 | 46.26993 | 47.98112 | 3291 ft | 222 kts | 306° |
| 2026-05-01 08:40 | 46.27933 | 47.96233 | 3447 ft | 243 kts | 306° |
| 2026-05-01 08:41 | 46.28943 | 47.94173 | 3759 ft | 260 kts | 305° |
| 2026-05-01 08:41 | 46.29999 | 47.91988 | 4232 ft | 270 kts | 304° |
| 2026-05-01 08:41 | 46.31060 | 47.89775 | 4898 ft | 272 kts | 303° |
| 2026-05-01 08:41 | 46.32134 | 47.87523 | 5566 ft | 274 kts | 302° |
| 2026-05-01 08:42 | 46.33203 | 47.85269 | 6213 ft | 276 kts | 301° |
| 2026-05-01 08:42 | 46.34297 | 47.82953 | 6867 ft | 278 kts | 301° |
| 2026-05-01 08:42 | 46.35374 | 47.80666 | 7549 ft | 278 kts | 301° |
| 2026-05-01 08:42 | 46.36459 | 47.78359 | 8205 ft | 279 kts | 300° |
| 2026-05-01 08:43 | 46.37545 | 47.76046 | 8863 ft | 280 kts | 300° |
| 2026-05-01 08:43 | 46.38637 | 47.73722 | 9517 ft | 280 kts | 300° |
| 2026-05-01 08:43 | 46.39723 | 47.71409 | 10158 ft | 280 kts | 300° |
| 2026-05-01 08:43 | 46.40818 | 47.69072 | 10645 ft | 287 kts | 299° |
| 2026-05-01 08:44 | 46.41967 | 47.66610 | 10895 ft | 301 kts | 299° |
| 2026-05-01 08:44 | 46.43155 | 47.64059 | 11158 ft | 315 kts | 299° |
| 2026-05-01 08:44 | 46.44398 | 47.61398 | 11417 ft | 328 kts | 299° |
| 2026-05-01 08:44 | 46.45706 | 47.58597 | 11640 ft | 341 kts | 300° |
| 2026-05-01 08:45 | 46.47052 | 47.55714 | 11924 ft | 351 kts | 300° |
| 2026-05-01 08:45 | 46.48425 | 47.52779 | 12413 ft | 354 kts | 300° |
| 2026-05-01 08:45 | 46.49806 | 47.49827 | 12986 ft | 355 kts | 299° |
| 2026-05-01 08:45 | 46.51189 | 47.46863 | 13512 ft | 357 kts | 299° |
| 2026-05-01 08:46 | 46.52587 | 47.43861 | 14015 ft | 359 kts | 299° |
| 2026-05-01 08:46 | 46.53977 | 47.40867 | 14521 ft | 360 kts | 299° |
| 2026-05-01 08:46 | 46.55376 | 47.37850 | 15015 ft | 362 kts | 299° |
| 2026-05-01 08:46 | 46.56773 | 47.34832 | 15356 ft | 368 kts | 298° |
| 2026-05-01 08:47 | 46.58217 | 47.31701 | 15779 ft | 371 kts | 298° |
| 2026-05-01 08:47 | 46.59650 | 47.28591 | 16250 ft | 373 kts | 298° |
| 2026-05-01 08:47 | 46.61090 | 47.25463 | 16700 ft | 375 kts | 298° |
| 2026-05-01 08:47 | 46.62546 | 47.22302 | 17145 ft | 376 kts | 298° |
| 2026-05-01 08:48 | 46.63984 | 47.19179 | 17562 ft | 378 kts | 298° |
| 2026-05-01 08:48 | 46.65442 | 47.16011 | 17986 ft | 380 kts | 298° |
| 2026-05-01 08:48 | 46.66916 | 47.12803 | 18402 ft | 381 kts | 298° |
| 2026-05-01 08:48 | 46.68389 | 47.09594 | 18828 ft | 382 kts | 298° |
| 2026-05-01 08:49 | 46.69850 | 47.06402 | 19219 ft | 383 kts | 298° |
| 2026-05-01 08:49 | 46.71310 | 47.03140 | 19590 ft | 385 kts | 297° |
| 2026-05-01 08:49 | 46.72768 | 46.99855 | 19936 ft | 387 kts | 297° |
| 2026-05-01 08:49 | 46.74233 | 46.96549 | 20326 ft | 389 kts | 297° |
| 2026-05-01 08:50 | 46.75691 | 46.93258 | 20704 ft | 389 kts | 297° |
| 2026-05-01 08:50 | 46.77158 | 46.89940 | 21060 ft | 391 kts | 297° |
| 2026-05-01 08:50 | 46.78630 | 46.86612 | 21407 ft | 392 kts | 297° |
| 2026-05-01 08:50 | 46.80111 | 46.83260 | 21747 ft | 394 kts | 297° |
| 2026-05-01 08:51 | 46.81590 | 46.79905 | 22085 ft | 395 kts | 297° |
| 2026-05-01 08:51 | 46.83058 | 46.76573 | 22412 ft | 397 kts | 297° |
| 2026-05-01 08:51 | 46.84544 | 46.73194 | 22735 ft | 398 kts | 297° |
| 2026-05-01 08:51 | 46.86052 | 46.69763 | 23078 ft | 399 kts | 297° |
| 2026-05-01 08:52 | 46.87555 | 46.66341 | 23377 ft | 400 kts | 297° |
| 2026-05-01 08:52 | 46.89050 | 46.62930 | 23669 ft | 402 kts | 297° |
| 2026-05-01 08:52 | 46.90551 | 46.59502 | 23968 ft | 403 kts | 297° |
| 2026-05-01 08:52 | 46.92048 | 46.56080 | 24299 ft | 403 kts | 297° |
| 2026-05-01 08:53 | 46.93560 | 46.52619 | 24598 ft | 405 kts | 297° |
| 2026-05-01 08:53 | 46.95069 | 46.49158 | 24906 ft | 405 kts | 297° |
| 2026-05-01 08:53 | 46.96572 | 46.45709 | 25209 ft | 406 kts | 297° |
| 2026-05-01 08:53 | 46.98097 | 46.42204 | 25529 ft | 406 kts | 296° |
| 2026-05-01 08:54 | 46.99617 | 46.38706 | 25803 ft | 406 kts | 297° |
| 2026-05-01 08:54 | 47.01128 | 46.35216 | 26059 ft | 408 kts | 297° |
| 2026-05-01 08:54 | 47.02668 | 46.31718 | 26337 ft | 411 kts | 298° |
| 2026-05-01 08:54 | 47.04504 | 46.28532 | 26668 ft | 419 kts | 308° |
| 2026-05-01 08:55 | 47.06775 | 46.25739 | 27103 ft | 425 kts | 316° |
| 2026-05-01 08:55 | 47.09327 | 46.23534 | 27534 ft | 431 kts | 324° |
| 2026-05-01 08:55 | 47.12030 | 46.21587 | 28006 ft | 429 kts | 326° |
| 2026-05-01 08:55 | 47.14687 | 46.19741 | 28412 ft | 427 kts | 325° |
| 2026-05-01 08:56 | 47.17386 | 46.17871 | 28745 ft | 426 kts | 325° |
| 2026-05-01 08:56 | 47.20065 | 46.16002 | 29119 ft | 424 kts | 325° |
| 2026-05-01 08:56 | 47.22715 | 46.14147 | 29514 ft | 421 kts | 325° |
| 2026-05-01 08:56 | 47.25329 | 46.12310 | 29867 ft | 419 kts | 325° |
| 2026-05-01 08:57 | 47.27954 | 46.10461 | 30246 ft | 417 kts | 325° |
| 2026-05-01 08:57 | 47.30576 | 46.08609 | 30577 ft | 416 kts | 324° |
| 2026-05-01 08:57 | 47.33160 | 46.06776 | 30784 ft | 417 kts | 324° |
| 2026-05-01 08:57 | 47.35777 | 46.04919 | 30998 ft | 417 kts | 324° |
| 2026-05-01 08:58 | 47.38386 | 46.03069 | 31210 ft | 418 kts | 324° |
| 2026-05-01 08:58 | 47.41003 | 46.01220 | 31362 ft | 420 kts | 324° |
| 2026-05-01 08:58 | 47.43626 | 45.99367 | 31504 ft | 422 kts | 324° |
| 2026-05-01 08:58 | 47.46270 | 45.97499 | 31661 ft | 423 kts | 324° |
| 2026-05-01 08:59 | 47.48915 | 45.95626 | 31811 ft | 424 kts | 324° |
| 2026-05-01 08:59 | 47.51594 | 45.93726 | 31964 ft | 425 kts | 324° |
| 2026-05-01 08:59 | 47.54246 | 45.91843 | 32107 ft | 426 kts | 324° |
| 2026-05-01 08:59 | 47.56925 | 45.89938 | 32114 ft | 427 kts | 324° |
| 2026-05-01 09:00 | 47.62263 | 45.86137 | 32127 ft | 428 kts | 324° |
| 2026-05-01 09:00 | 47.67608 | 45.82321 | 32133 ft | 426 kts | 324° |
| 2026-05-01 09:01 | 47.72950 | 45.78498 | 32133 ft | 425 kts | 324° |
| 2026-05-01 09:01 | 47.78281 | 45.74675 | 32133 ft | 425 kts | 324° |
| 2026-05-01 09:02 | 47.83555 | 45.70879 | 32134 ft | 425 kts | 324° |
| 2026-05-01 09:02 | 47.88891 | 45.67034 | 32128 ft | 426 kts | 324° |
| 2026-05-01 09:03 | 47.94201 | 45.63197 | 32132 ft | 426 kts | 324° |
| 2026-05-01 09:03 | 47.99501 | 45.59360 | 32134 ft | 425 kts | 324° |
| 2026-05-01 09:04 | 48.04833 | 45.55487 | 32132 ft | 426 kts | 324° |
| 2026-05-01 09:04 | 48.10149 | 45.51619 | 32130 ft | 425 kts | 323° |
| 2026-05-01 09:05 | 48.15472 | 45.47762 | 32134 ft | 425 kts | 324° |
| 2026-05-01 09:05 | 48.20799 | 45.43880 | 32126 ft | 426 kts | 323° |
| 2026-05-01 09:06 | 48.26100 | 45.39996 | 32126 ft | 427 kts | 323° |
| 2026-05-01 09:06 | 48.31404 | 45.36093 | 32121 ft | 427 kts | 323° |
| 2026-05-01 09:07 | 48.36698 | 45.32127 | 32114 ft | 423 kts | 321° |
| 2026-05-01 09:07 | 48.41674 | 45.27628 | 32111 ft | 414 kts | 315° |
| 2026-05-01 09:08 | 48.46275 | 45.22531 | 32109 ft | 409 kts | 312° |
| 2026-05-01 09:08 | 48.50790 | 45.17251 | 32107 ft | 412 kts | 311° |
| 2026-05-01 09:09 | 48.55301 | 45.11958 | 32105 ft | 411 kts | 311° |
| 2026-05-01 09:09 | 48.59801 | 45.06672 | 32105 ft | 410 kts | 312° |
| 2026-05-01 09:10 | 48.64296 | 45.01380 | 32111 ft | 411 kts | 311° |
| 2026-05-01 09:10 | 48.68795 | 44.96071 | 32103 ft | 412 kts | 312° |
| 2026-05-01 09:11 | 48.73292 | 44.90754 | 32107 ft | 410 kts | 311° |
| 2026-05-01 09:11 | 48.77771 | 44.85441 | 32104 ft | 412 kts | 311° |
| 2026-05-01 09:12 | 48.82274 | 44.80088 | 32100 ft | 412 kts | 311° |
| 2026-05-01 09:12 | 48.86727 | 44.74667 | 32104 ft | 409 kts | 310° |
| 2026-05-01 09:13 | 48.91094 | 44.69202 | 32107 ft | 410 kts | 310° |
| 2026-05-01 09:13 | 48.95491 | 44.63680 | 32099 ft | 409 kts | 310° |
| 2026-05-01 09:14 | 48.99902 | 44.58139 | 32102 ft | 409 kts | 310° |
| 2026-05-01 09:14 | 49.04180 | 44.52758 | 32095 ft | 410 kts | 310° |
| 2026-05-01 09:15 | 49.08569 | 44.47221 | 32094 ft | 411 kts | 310° |
| 2026-05-01 09:15 | 49.12991 | 44.41655 | 32084 ft | 411 kts | 310° |
| 2026-05-01 09:16 | 49.17395 | 44.36110 | 32086 ft | 411 kts | 310° |
| 2026-05-01 09:17 | 49.23972 | 44.27743 | 32091 ft | 411 kts | 309° |
| 2026-05-01 09:17 | 49.30543 | 44.19353 | 32095 ft | 411 kts | 309° |
| 2026-05-01 09:18 | 49.37119 | 44.10935 | 32086 ft | 412 kts | 309° |
| 2026-05-01 09:19 | 49.43677 | 44.02506 | 32103 ft | 411 kts | 309° |
| 2026-05-01 09:20 | 49.50246 | 43.94030 | 32106 ft | 414 kts | 309° |
| 2026-05-01 09:21 | 49.59045 | 43.82695 | 32096 ft | 414 kts | 310° |
| 2026-05-01 09:21 | 49.65652 | 43.74150 | 32109 ft | 416 kts | 310° |
| 2026-05-01 09:22 | 49.74506 | 43.62643 | 32106 ft | 416 kts | 310° |
| 2026-05-01 09:23 | 49.81111 | 43.54018 | 32102 ft | 417 kts | 310° |
| 2026-05-01 09:24 | 49.87783 | 43.45277 | 32105 ft | 419 kts | 310° |
| 2026-05-01 09:25 | 49.96635 | 43.33626 | 32110 ft | 419 kts | 309° |
| 2026-05-01 09:26 | 50.03231 | 43.24873 | 32108 ft | 421 kts | 310° |
| 2026-05-01 09:26 | 50.09886 | 43.16030 | 32102 ft | 423 kts | 310° |
| 2026-05-01 09:27 | 50.16600 | 43.07145 | 32096 ft | 424 kts | 310° |
| 2026-05-01 09:28 | 50.21066 | 43.01196 | 32079 ft | 426 kts | 310° |
| 2026-05-01 09:28 | 50.25553 | 42.95189 | 32083 ft | 426 kts | 310° |
| 2026-05-01 09:29 | 50.32309 | 42.86111 | 32094 ft | 428 kts | 310° |
| 2026-05-01 09:30 | 50.39074 | 42.76978 | 32077 ft | 430 kts | 311° |
| 2026-05-01 09:30 | 50.45828 | 42.67828 | 32085 ft | 431 kts | 311° |
| 2026-05-01 09:31 | 50.50368 | 42.61654 | 32079 ft | 432 kts | 311° |
| 2026-05-01 09:32 | 50.57323 | 42.53249 | 32086 ft | 440 kts | 318° |
| 2026-05-01 09:32 | 50.64914 | 42.45139 | 32105 ft | 441 kts | 319° |
| 2026-05-01 09:33 | 50.69976 | 42.39717 | 32080 ft | 442 kts | 319° |
| 2026-05-01 09:34 | 50.77584 | 42.31514 | 32098 ft | 442 kts | 318° |
| 2026-05-01 09:34 | 50.85189 | 42.23259 | 32105 ft | 443 kts | 319° |
| 2026-05-01 09:35 | 50.92606 | 42.15198 | 32092 ft | 445 kts | 319° |
| 2026-05-01 09:36 | 50.97672 | 42.09679 | 32095 ft | 445 kts | 319° |
| 2026-05-01 09:36 | 51.02771 | 42.04106 | 32097 ft | 446 kts | 320° |
| 2026-05-01 09:37 | 51.07844 | 41.98552 | 32103 ft | 446 kts | 320° |
| 2026-05-01 09:37 | 51.15548 | 41.90120 | 32107 ft | 447 kts | 320° |
| 2026-05-01 09:38 | 51.23136 | 41.81775 | 32112 ft | 448 kts | 320° |
| 2026-05-01 09:39 | 51.30770 | 41.73320 | 32102 ft | 448 kts | 321° |
| 2026-05-01 09:39 | 51.35881 | 41.67638 | 32105 ft | 448 kts | 321° |
| 2026-05-01 09:40 | 51.43528 | 41.59105 | 32108 ft | 449 kts | 321° |
| 2026-05-01 09:41 | 51.48629 | 41.53392 | 32106 ft | 449 kts | 321° |
| 2026-05-01 09:41 | 51.56281 | 41.44788 | 32105 ft | 449 kts | 321° |
| 2026-05-01 09:42 | 51.61362 | 41.39056 | 32099 ft | 449 kts | 322° |
| 2026-05-01 09:43 | 51.71546 | 41.27500 | 32102 ft | 449 kts | 321° |
| 2026-05-01 09:43 | 51.76616 | 41.21733 | 32101 ft | 450 kts | 321° |
| 2026-05-01 09:44 | 51.84285 | 41.12986 | 32288 ft | 454 kts | 322° |
| 2026-05-01 09:44 | 51.86869 | 41.10030 | 32482 ft | 452 kts | 322° |
| 2026-05-01 09:45 | 51.89428 | 41.07100 | 32642 ft | 452 kts | 322° |
| 2026-05-01 09:45 | 51.94542 | 41.01232 | 32930 ft | 453 kts | 322° |
| 2026-05-01 09:45 | 51.97086 | 40.98306 | 33078 ft | 453 kts | 322° |
| 2026-05-01 09:46 | 51.99667 | 40.95334 | 33232 ft | 453 kts | 323° |
| 2026-05-01 09:46 | 52.02213 | 40.92405 | 33403 ft | 453 kts | 323° |
| 2026-05-01 09:46 | 52.04822 | 40.89607 | 33581 ft | 453 kts | 326° |
| 2026-05-01 09:46 | 52.07545 | 40.86976 | 33765 ft | 453 kts | 328° |
| 2026-05-01 09:47 | 52.10247 | 40.84479 | 33953 ft | 453 kts | 329° |
| 2026-05-01 09:47 | 52.13000 | 40.81970 | 34097 ft | 453 kts | 329° |
| 2026-05-01 09:47 | 52.18475 | 40.76974 | 34123 ft | 452 kts | 329° |
| 2026-05-01 09:48 | 52.23922 | 40.71957 | 34119 ft | 452 kts | 329° |
| 2026-05-01 09:48 | 52.29334 | 40.66941 | 34119 ft | 451 kts | 329° |
| 2026-05-01 09:49 | 52.34808 | 40.61855 | 34121 ft | 452 kts | 329° |
| 2026-05-01 09:49 | 52.40219 | 40.56815 | 34121 ft | 452 kts | 329° |
| 2026-05-01 09:50 | 52.45679 | 40.51706 | 34123 ft | 451 kts | 329° |
| 2026-05-01 09:50 | 52.51092 | 40.46634 | 34123 ft | 451 kts | 330° |
| 2026-05-01 09:51 | 52.56538 | 40.41563 | 34123 ft | 450 kts | 330° |
| 2026-05-01 09:51 | 52.61974 | 40.36482 | 34124 ft | 450 kts | 330° |
| 2026-05-01 09:52 | 52.67372 | 40.31399 | 34123 ft | 450 kts | 329° |
| 2026-05-01 09:52 | 52.72803 | 40.26262 | 34124 ft | 451 kts | 329° |
| 2026-05-01 09:53 | 52.78200 | 40.21162 | 34125 ft | 451 kts | 330° |
| 2026-05-01 09:53 | 52.83619 | 40.16033 | 34126 ft | 451 kts | 330° |
| 2026-05-01 09:54 | 52.89051 | 40.10877 | 34129 ft | 451 kts | 330° |
| 2026-05-01 09:54 | 52.94481 | 40.05710 | 34132 ft | 451 kts | 330° |
| 2026-05-01 09:55 | 52.99909 | 40.00528 | 34132 ft | 451 kts | 330° |
| 2026-05-01 09:55 | 53.05307 | 39.95357 | 34136 ft | 451 kts | 330° |
| 2026-05-01 09:56 | 53.10728 | 39.90152 | 34142 ft | 451 kts | 330° |
| 2026-05-01 09:56 | 53.16158 | 39.84951 | 34150 ft | 451 kts | 330° |
| 2026-05-01 09:57 | 53.21590 | 39.79720 | 34157 ft | 451 kts | 330° |
| 2026-05-01 09:57 | 53.26975 | 39.74504 | 34157 ft | 450 kts | 330° |
| 2026-05-01 09:58 | 53.32364 | 39.69264 | 34154 ft | 450 kts | 330° |
| 2026-05-01 09:58 | 53.37754 | 39.64006 | 34156 ft | 450 kts | 330° |
| 2026-05-01 09:59 | 53.43216 | 39.58917 | 34159 ft | 449 kts | 334° |
| 2026-05-01 09:59 | 53.48778 | 39.54212 | 34153 ft | 449 kts | 334° |
| 2026-05-01 10:00 | 53.54330 | 39.49527 | 34153 ft | 448 kts | 334° |
| 2026-05-01 10:00 | 53.59859 | 39.44833 | 34153 ft | 448 kts | 335° |
| 2026-05-01 10:01 | 53.65424 | 39.40091 | 34154 ft | 448 kts | 335° |
| 2026-05-01 10:01 | 53.70965 | 39.35353 | 34153 ft | 448 kts | 335° |
| 2026-05-01 10:02 | 53.76484 | 39.30592 | 34151 ft | 448 kts | 334° |
| 2026-05-01 10:02 | 53.82037 | 39.25800 | 34150 ft | 449 kts | 334° |
| 2026-05-01 10:03 | 53.87576 | 39.21018 | 34152 ft | 448 kts | 334° |
| 2026-05-01 10:03 | 53.93121 | 39.16216 | 34151 ft | 448 kts | 334° |
| 2026-05-01 10:04 | 53.98647 | 39.11412 | 34153 ft | 448 kts | 334° |
| 2026-05-01 10:04 | 54.04173 | 39.06594 | 34152 ft | 447 kts | 335° |
| 2026-05-01 10:05 | 54.09687 | 39.01776 | 34153 ft | 447 kts | 335° |
| 2026-05-01 10:05 | 54.15229 | 38.96931 | 34155 ft | 447 kts | 335° |
| 2026-05-01 10:06 | 54.20638 | 38.91815 | 34155 ft | 448 kts | 330° |
| 2026-05-01 10:06 | 54.25729 | 38.85734 | 34154 ft | 449 kts | 324° |
| 2026-05-01 10:07 | 54.30467 | 38.78754 | 34156 ft | 450 kts | 321° |
| 2026-05-01 10:07 | 54.34807 | 38.71955 | 34159 ft | 450 kts | 320° |
| 2026-05-01 10:08 | 54.41638 | 38.61212 | 34159 ft | 450 kts | 321° |
| 2026-05-01 10:09 | 54.46061 | 38.54244 | 34154 ft | 449 kts | 321° |
| 2026-05-01 10:09 | 54.50647 | 38.47000 | 34153 ft | 449 kts | 321° |
| 2026-05-01 10:10 | 54.55236 | 38.39733 | 34156 ft | 449 kts | 321° |
| 2026-05-01 10:10 | 54.62037 | 38.28892 | 34154 ft | 449 kts | 320° |
| 2026-05-01 10:11 | 54.66575 | 38.21627 | 34156 ft | 449 kts | 321° |
| 2026-05-01 10:11 | 54.71129 | 38.14324 | 34151 ft | 449 kts | 321° |
| 2026-05-01 10:12 | 54.75682 | 38.07001 | 34161 ft | 449 kts | 321° |
| 2026-05-01 10:13 | 54.82496 | 37.95985 | 34159 ft | 449 kts | 321° |
| 2026-05-01 10:13 | 54.87033 | 37.88623 | 34156 ft | 448 kts | 321° |
| 2026-05-01 10:14 | 54.93832 | 37.77543 | 34160 ft | 448 kts | 321° |
| 2026-05-01 10:14 | 54.98353 | 37.70149 | 34165 ft | 447 kts | 321° |
| 2026-05-01 10:15 | 55.02861 | 37.62748 | 34164 ft | 447 kts | 322° |
| 2026-05-01 10:15 | 55.07379 | 37.55309 | 34163 ft | 447 kts | 322° |
| 2026-05-01 10:16 | 55.11888 | 37.47874 | 34164 ft | 447 kts | 322° |
| 2026-05-01 10:17 | 55.18577 | 37.36840 | 34167 ft | 446 kts | 322° |
| 2026-05-01 10:17 | 55.25329 | 37.25575 | 34161 ft | 445 kts | 321° |
| 2026-05-01 10:18 | 55.32008 | 37.14381 | 34168 ft | 445 kts | 322° |
| 2026-05-01 10:19 | 55.36492 | 37.06848 | 34161 ft | 445 kts | 322° |
| 2026-05-01 10:19 | 55.40933 | 36.99362 | 34156 ft | 444 kts | 322° |
| 2026-05-01 10:20 | 55.47584 | 36.88096 | 34155 ft | 443 kts | 322° |
| 2026-05-01 10:20 | 55.52046 | 36.80700 | 34155 ft | 441 kts | 325° |
| 2026-05-01 10:21 | 55.59270 | 36.70891 | 34145 ft | 435 kts | 330° |
| 2026-05-01 10:22 | 55.66563 | 36.61549 | 34152 ft | 434 kts | 330° |
| 2026-05-01 10:23 | 55.73889 | 36.52102 | 34159 ft | 433 kts | 330° |
| 2026-05-01 10:23 | 55.81134 | 36.42710 | 34146 ft | 432 kts | 331° |
| 2026-05-01 10:24 | 55.90774 | 36.30118 | 34141 ft | 432 kts | 330° |
| 2026-05-01 10:25 | 56.00417 | 36.17437 | 34146 ft | 431 kts | 331° |
| 2026-05-01 10:26 | 56.05218 | 36.11111 | 34137 ft | 431 kts | 331° |
| 2026-05-01 10:27 | 56.14809 | 35.98470 | 34153 ft | 428 kts | 331° |
| 2026-05-01 10:28 | 56.21940 | 35.89045 | 34171 ft | 427 kts | 332° |
| 2026-05-01 10:28 | 56.29065 | 35.79575 | 34155 ft | 424 kts | 332° |
| 2026-05-01 10:29 | 56.36127 | 35.70145 | 34177 ft | 423 kts | 332° |
| 2026-05-01 10:30 | 56.45499 | 35.57556 | 34191 ft | 419 kts | 332° |
| 2026-05-01 10:31 | 56.54845 | 35.44921 | 34178 ft | 418 kts | 332° |
| 2026-05-01 10:32 | 56.61771 | 35.35457 | 34195 ft | 416 kts | 332° |
| 2026-05-01 10:33 | 56.70974 | 35.22686 | 34186 ft | 416 kts | 331° |
| 2026-05-01 10:34 | 56.77755 | 35.13247 | 34167 ft | 414 kts | 331° |
| 2026-05-01 10:34 | 56.82306 | 35.06901 | 34177 ft | 414 kts | 332° |
| 2026-05-01 10:35 | 56.89141 | 34.97327 | 34167 ft | 413 kts | 332° |
| 2026-05-01 10:35 | 56.93763 | 34.91389 | 34165 ft | 406 kts | 336° |
| 2026-05-01 10:36 | 57.00835 | 34.82937 | 34160 ft | 404 kts | 336° |
| 2026-05-01 10:37 | 57.05511 | 34.77341 | 34157 ft | 406 kts | 336° |
| 2026-05-01 10:37 | 57.12550 | 34.68884 | 34156 ft | 403 kts | 336° |
| 2026-05-01 10:38 | 57.17226 | 34.63255 | 34148 ft | 405 kts | 336° |
| 2026-05-01 10:38 | 57.21919 | 34.57581 | 34155 ft | 407 kts | 335° |
| 2026-05-01 10:39 | 57.26633 | 34.51857 | 34159 ft | 406 kts | 335° |
| 2026-05-01 10:39 | 57.31338 | 34.46120 | 34161 ft | 405 kts | 335° |
| 2026-05-01 10:40 | 57.36040 | 34.40369 | 34161 ft | 407 kts | 335° |
| 2026-05-01 10:40 | 57.40726 | 34.34616 | 34159 ft | 406 kts | 334° |
| 2026-05-01 10:41 | 57.45422 | 34.28805 | 34163 ft | 406 kts | 334° |
| 2026-05-01 10:42 | 57.52441 | 34.20113 | 34169 ft | 407 kts | 334° |
| 2026-05-01 10:42 | 57.57113 | 34.14312 | 34165 ft | 406 kts | 334° |
| 2026-05-01 10:43 | 57.61799 | 34.08476 | 34165 ft | 407 kts | 334° |
| 2026-05-01 10:43 | 57.66486 | 34.02623 | 34161 ft | 407 kts | 334° |
| 2026-05-01 10:44 | 57.71170 | 33.96760 | 34158 ft | 407 kts | 334° |
| 2026-05-01 10:44 | 57.75841 | 33.90893 | 34159 ft | 407 kts | 333° |
| 2026-05-01 10:45 | 57.80540 | 33.84971 | 34158 ft | 407 kts | 334° |
| 2026-05-01 10:45 | 57.85207 | 33.79063 | 34159 ft | 406 kts | 333° |
| 2026-05-01 10:46 | 57.89732 | 33.72686 | 34159 ft | 411 kts | 329° |
| 2026-05-01 10:46 | 57.94152 | 33.65989 | 34160 ft | 410 kts | 329° |
| 2026-05-01 10:47 | 57.98567 | 33.59261 | 34154 ft | 410 kts | 329° |
| 2026-05-01 10:47 | 58.03002 | 33.52492 | 34158 ft | 409 kts | 329° |
| 2026-05-01 10:48 | 58.07399 | 33.45759 | 34161 ft | 410 kts | 329° |
| 2026-05-01 10:48 | 58.11802 | 33.39001 | 34154 ft | 409 kts | 329° |
| 2026-05-01 10:49 | 58.16218 | 33.32212 | 34155 ft | 410 kts | 328° |
| 2026-05-01 10:49 | 58.20599 | 33.25427 | 34148 ft | 410 kts | 328° |
| 2026-05-01 10:50 | 58.24987 | 33.18621 | 34155 ft | 410 kts | 328° |
| 2026-05-01 10:50 | 58.29395 | 33.11764 | 34153 ft | 408 kts | 328° |
| 2026-05-01 10:50 | 58.31577 | 33.08360 | 33932 ft | 407 kts | 328° |
| 2026-05-01 10:51 | 58.33745 | 33.04969 | 33693 ft | 405 kts | 328° |
| 2026-05-01 10:51 | 58.35887 | 33.01612 | 33450 ft | 403 kts | 329° |
| 2026-05-01 10:51 | 58.38039 | 32.98240 | 33176 ft | 400 kts | 329° |
| 2026-05-01 10:51 | 58.40169 | 32.94894 | 32772 ft | 398 kts | 329° |
| 2026-05-01 10:52 | 58.43000 | 32.90443 | 32079 ft | 396 kts | 329° |
| 2026-05-01 10:52 | 58.44406 | 32.88231 | 31685 ft | 396 kts | 329° |
| 2026-05-01 10:52 | 58.46522 | 32.84893 | 31078 ft | 396 kts | 329° |
| 2026-05-01 10:52 | 58.48618 | 32.81583 | 30427 ft | 396 kts | 329° |
| 2026-05-01 10:53 | 58.50724 | 32.78258 | 29765 ft | 395 kts | 329° |
| 2026-05-01 10:53 | 58.52835 | 32.74921 | 29083 ft | 395 kts | 329° |
| 2026-05-01 10:53 | 58.54946 | 32.71576 | 28368 ft | 395 kts | 328° |
| 2026-05-01 10:53 | 58.57039 | 32.68250 | 27654 ft | 395 kts | 328° |
| 2026-05-01 10:54 | 58.59152 | 32.64888 | 26914 ft | 395 kts | 328° |
| 2026-05-01 10:54 | 58.61234 | 32.61568 | 26169 ft | 395 kts | 328° |
| 2026-05-01 10:54 | 58.63326 | 32.58226 | 25607 ft | 391 kts | 328° |
| 2026-05-01 10:54 | 58.65403 | 32.54898 | 25129 ft | 388 kts | 328° |
| 2026-05-01 10:55 | 58.67455 | 32.51605 | 24621 ft | 384 kts | 328° |
| 2026-05-01 10:55 | 58.69497 | 32.48323 | 24122 ft | 381 kts | 327° |
| 2026-05-01 10:55 | 58.71493 | 32.45112 | 23644 ft | 378 kts | 327° |
| 2026-05-01 10:55 | 58.73486 | 32.41902 | 23148 ft | 375 kts | 327° |
| 2026-05-01 10:56 | 58.75482 | 32.38683 | 22633 ft | 372 kts | 327° |
| 2026-05-01 10:56 | 58.77430 | 32.35538 | 22148 ft | 368 kts | 327° |
| 2026-05-01 10:56 | 58.79396 | 32.32347 | 21695 ft | 365 kts | 326° |
| 2026-05-01 10:56 | 58.81328 | 32.29207 | 21275 ft | 363 kts | 326° |
| 2026-05-01 10:57 | 58.83229 | 32.26112 | 20880 ft | 361 kts | 326° |
| 2026-05-01 10:57 | 58.85162 | 32.22968 | 20472 ft | 359 kts | 326° |
| 2026-05-01 10:57 | 58.87042 | 32.19901 | 20088 ft | 358 kts | 326° |
| 2026-05-01 10:57 | 58.88951 | 32.16790 | 19693 ft | 356 kts | 326° |
| 2026-05-01 10:58 | 58.90823 | 32.13729 | 19306 ft | 355 kts | 326° |
| 2026-05-01 10:58 | 58.92691 | 32.10679 | 18915 ft | 352 kts | 326° |
| 2026-05-01 10:58 | 58.94555 | 32.07632 | 18530 ft | 351 kts | 326° |
| 2026-05-01 10:58 | 58.96413 | 32.04585 | 18134 ft | 350 kts | 326° |
| 2026-05-01 10:59 | 58.98254 | 32.01565 | 17754 ft | 349 kts | 325° |
| 2026-05-01 10:59 | 59.00096 | 31.98537 | 17370 ft | 346 kts | 325° |
| 2026-05-01 10:59 | 59.01931 | 31.95517 | 16986 ft | 352 kts | 325° |
| 2026-05-01 10:59 | 59.03814 | 31.92423 | 16585 ft | 360 kts | 324° |
| 2026-05-01 11:00 | 59.05731 | 31.89255 | 16179 ft | 362 kts | 324° |
| 2026-05-01 11:00 | 59.07644 | 31.86085 | 15776 ft | 362 kts | 324° |
| 2026-05-01 11:00 | 59.09549 | 31.82925 | 15359 ft | 361 kts | 324° |
| 2026-05-01 11:00 | 59.11382 | 31.79696 | 14912 ft | 360 kts | 321° |
| 2026-05-01 11:01 | 59.13187 | 31.76335 | 14450 ft | 358 kts | 321° |
| 2026-05-01 11:01 | 59.14955 | 31.73000 | 13967 ft | 355 kts | 321° |
| 2026-05-01 11:01 | 59.16717 | 31.69662 | 13481 ft | 352 kts | 321° |
| 2026-05-01 11:01 | 59.18441 | 31.66390 | 12997 ft | 349 kts | 320° |
| 2026-05-01 11:02 | 59.20177 | 31.63090 | 12503 ft | 346 kts | 320° |
| 2026-05-01 11:02 | 59.21883 | 31.59841 | 12013 ft | 343 kts | 320° |
| 2026-05-01 11:02 | 59.23580 | 31.56602 | 11523 ft | 340 kts | 320° |
| 2026-05-01 11:02 | 59.25247 | 31.53419 | 11039 ft | 338 kts | 320° |
| 2026-05-01 11:03 | 59.26906 | 31.50246 | 10704 ft | 329 kts | 320° |
| 2026-05-01 11:03 | 59.28505 | 31.47180 | 10606 ft | 314 kts | 320° |
| 2026-05-01 11:03 | 59.30011 | 31.44284 | 10495 ft | 300 kts | 320° |
| 2026-05-01 11:03 | 59.31469 | 31.41481 | 10392 ft | 287 kts | 320° |
| 2026-05-01 11:04 | 59.32848 | 31.38826 | 10305 ft | 274 kts | 320° |
| 2026-05-01 11:04 | 59.34177 | 31.36261 | 10226 ft | 261 kts | 320° |
| 2026-05-01 11:04 | 59.35449 | 31.33808 | 10066 ft | 255 kts | 319° |
| 2026-05-01 11:04 | 59.36694 | 31.31403 | 9728 ft | 254 kts | 319° |
| 2026-05-01 11:05 | 59.37953 | 31.28964 | 9402 ft | 253 kts | 319° |
| 2026-05-01 11:05 | 59.39188 | 31.26573 | 9086 ft | 251 kts | 319° |
| 2026-05-01 11:05 | 59.40423 | 31.24178 | 8773 ft | 249 kts | 319° |
| 2026-05-01 11:05 | 59.41651 | 31.21798 | 8466 ft | 247 kts | 319° |
| 2026-05-01 11:06 | 59.42856 | 31.19459 | 8161 ft | 246 kts | 319° |
| 2026-05-01 11:06 | 59.44070 | 31.17100 | 7859 ft | 244 kts | 319° |
| 2026-05-01 11:06 | 59.45256 | 31.14795 | 7562 ft | 243 kts | 318° |
| 2026-05-01 11:07 | 59.47631 | 31.10167 | 6966 ft | 239 kts | 318° |
| 2026-05-01 11:07 | 59.48819 | 31.07850 | 6497 ft | 246 kts | 318° |
| 2026-05-01 11:07 | 59.50068 | 31.05423 | 5656 ft | 264 kts | 317° |
| 2026-05-01 11:07 | 59.51349 | 31.02900 | 5329 ft | 261 kts | 315° |
| 2026-05-01 11:08 | 59.52563 | 31.00258 | 5053 ft | 255 kts | 313° |
| 2026-05-01 11:08 | 59.53695 | 30.97677 | 5015 ft | 252 kts | 312° |
| 2026-05-01 11:08 | 59.55989 | 30.92416 | 4967 ft | 253 kts | 312° |
| 2026-05-01 11:09 | 59.57122 | 30.89817 | 4964 ft | 253 kts | 312° |
| 2026-05-01 11:09 | 59.58276 | 30.87171 | 4963 ft | 253 kts | 312° |
| 2026-05-01 11:09 | 59.59417 | 30.84554 | 4965 ft | 253 kts | 312° |
| 2026-05-01 11:10 | 59.61495 | 30.79771 | 4752 ft | 254 kts | 311° |
| 2026-05-01 11:10 | 59.62641 | 30.77133 | 4421 ft | 252 kts | 311° |
| 2026-05-01 11:10 | 59.63771 | 30.74527 | 4100 ft | 250 kts | 311° |
| 2026-05-01 11:10 | 59.64890 | 30.71945 | 3787 ft | 248 kts | 311° |
| 2026-05-01 11:11 | 59.66022 | 30.69363 | 3472 ft | 246 kts | 313° |
| 2026-05-01 11:11 | 59.67250 | 30.67125 | 3417 ft | 233 kts | 321° |
| 2026-05-01 11:11 | 59.68515 | 30.65285 | 3421 ft | 224 kts | 324° |
| 2026-05-01 11:11 | 59.69780 | 30.63527 | 3353 ft | 224 kts | 324° |
| 2026-05-01 11:12 | 59.71043 | 30.61779 | 3202 ft | 216 kts | 324° |
| 2026-05-01 11:12 | 59.72247 | 30.60108 | 3056 ft | 212 kts | 324° |
| 2026-05-01 11:12 | 59.73421 | 30.58474 | 2994 ft | 198 kts | 324° |
| 2026-05-01 11:12 | 59.74496 | 30.56796 | 2566 ft | 198 kts | 309° |
| 2026-05-01 11:13 | 59.75109 | 30.54481 | 2464 ft | 180 kts | 291° |
| 2026-05-01 11:13 | 59.75485 | 30.52331 | 2485 ft | 157 kts | 288° |
| 2026-05-01 11:13 | 59.75803 | 30.50297 | 2373 ft | 153 kts | 287° |
| 2026-05-01 11:13 | 59.76101 | 30.48289 | 2160 ft | 152 kts | 286° |
| 2026-05-01 11:14 | 59.76391 | 30.46302 | 1956 ft | 151 kts | 286° |
| 2026-05-01 11:14 | 59.76685 | 30.44282 | 1753 ft | 151 kts | 285° |
| 2026-05-01 11:14 | 59.76974 | 30.42298 | 1551 ft | 150 kts | 285° |
| 2026-05-01 11:14 | 59.77261 | 30.40337 | 1355 ft | 150 kts | 286° |
| 2026-05-01 11:15 | 59.77549 | 30.38365 | 1155 ft | 149 kts | 286° |
| 2026-05-01 11:15 | 59.77839 | 30.36388 | 957 ft | 149 kts | 286° |
| 2026-05-01 11:15 | 59.78131 | 30.34403 | 755 ft | 148 kts | 285° |
| 2026-05-01 11:15 | 59.78416 | 30.32453 | 558 ft | 148 kts | 285° |
| 2026-05-01 11:16 | 59.78702 | 30.30514 | 361 ft | 147 kts | 285° |
| 2026-05-01 11:16 | 59.78989 | 30.28568 | 163 ft | 145 kts | 286° |
| 2026-05-01 11:16 | 59.79261 | 30.26737 | 87 ft | 121 kts | 286° |
| 2026-05-01 11:16 | 59.79449 | 30.25464 | 87 ft | 72 kts | 286° |
| 2026-05-01 11:17 | 59.79544 | 30.24820 | 87 ft | 31 kts | 286° |
| 2026-05-01 11:17 | 59.79605 | 30.24411 | 87 ft | 30 kts | 286° |
| 2026-05-01 11:17 | 59.79662 | 30.24029 | 87 ft | 27 kts | 286° |
| 2026-05-01 11:17 | 59.79709 | 30.23708 | 87 ft | 23 kts | 287° |
| 2026-05-01 11:18 | 59.79764 | 30.23410 | 87 ft | 22 kts | 298° |
| 2026-05-01 11:18 | 59.79852 | 30.23164 | 87 ft | 21 kts | 312° |
| 2026-05-01 11:18 | 59.79938 | 30.23031 | 87 ft | 14 kts | 355° |
| 2026-05-01 11:18 | 59.79973 | 30.23148 | 87 ft | 8 kts | 105° |
| 2026-05-01 11:19 | 59.79957 | 30.23257 | 87 ft | 8 kts | 106° |
| 2026-05-01 11:19 | 59.79939 | 30.23381 | 87 ft | 9 kts | 106° |
| 2026-05-01 11:19 | 59.79918 | 30.23518 | 87 ft | 10 kts | 106° |
| 2026-05-01 11:19 | 59.79896 | 30.23665 | 87 ft | 11 kts | 106° |
| 2026-05-01 11:20 | 59.79872 | 30.23824 | 87 ft | 12 kts | 106° |
| 2026-05-01 11:20 | 59.79847 | 30.23994 | 87 ft | 13 kts | 106° |
| 2026-05-01 11:20 | 59.79821 | 30.24171 | 87 ft | 13 kts | 106° |
| 2026-05-01 11:20 | 59.79794 | 30.24357 | 87 ft | 14 kts | 106° |
| 2026-05-01 11:21 | 59.79766 | 30.24547 | 87 ft | 14 kts | 106° |
| 2026-05-01 11:21 | 59.79737 | 30.24743 | 87 ft | 15 kts | 106° |
| 2026-05-01 11:21 | 59.79707 | 30.24943 | 87 ft | 15 kts | 106° |
| 2026-05-01 11:21 | 59.79677 | 30.25143 | 87 ft | 13 kts | 106° |
| 2026-05-01 11:22 | 59.79651 | 30.25315 | 87 ft | 11 kts | 106° |
| 2026-05-01 11:22 | 59.79632 | 30.25440 | 87 ft | 9 kts | 107° |
| 2026-05-01 11:22 | 59.79617 | 30.25540 | 87 ft | 4 kts | 106° |
| 2026-05-01 11:22 | 59.79607 | 30.25609 | 87 ft | 5 kts | 106° |
| 2026-05-01 11:23 | 59.79595 | 30.25692 | 87 ft | 6 kts | 106° |
| 2026-05-01 11:23 | 59.79581 | 30.25789 | 87 ft | 7 kts | 106° |
| 2026-05-01 11:23 | 59.79565 | 30.25899 | 87 ft | 8 kts | 106° |
| 2026-05-01 11:23 | 59.79547 | 30.26024 | 87 ft | 9 kts | 106° |
| 2026-05-01 11:24 | 59.79526 | 30.26162 | 87 ft | 10 kts | 106° |
| 2026-05-01 11:24 | 59.79522 | 30.26299 | 87 ft | 10 kts | 35° |
| 2026-05-01 11:24 | 59.79671 | 30.26387 | 87 ft | 11 kts | 17° |
| 2026-05-01 11:25 | 59.79715 | 30.26414 | 87 ft | 0 kts | 19° |
| 2026-05-01 11:25 | 59.79718 | 30.26417 | 87 ft | 1 kts | 26° |
| 2026-05-01 11:25 | 59.79738 | 30.26454 | 87 ft | 5 kts | 58° |
| 2026-05-01 11:26 | 59.79737 | 30.26536 | 87 ft | 7 kts | 105° |
| 2026-05-01 11:26 | 59.79722 | 30.26624 | 87 ft | 0 kts | 110° |